Time;durP1;ratioP1;P1;durP2;ratioP2;P2;SDS_P1;SDS_P2;PMS_P1;PMS_P2;Temp;Humidity;BMP_temperature;BMP_pressure;BME280_temperature;BME280_humidity;BME280_pressure;Samples;Min_cycle;Max_cycle;Signal;HPM_P1;HPM_P2
2024/01/16 00:00:33;;;;;;;4.67;2.70;;;-0.90;76.00;;;;;;5060924;28;20199;-81
2024/01/16 00:03:00;;;;;;;3.03;2.40;;;-0.80;75.70;;;;;;5077335;28;20225;-77
2024/01/16 00:05:27;;;;;;;3.57;2.60;;;-0.80;73.50;;;;;;5082490;28;20216;-77
2024/01/16 00:07:53;;;;;;;3.17;2.50;;;-1.00;74.90;;;;;;5082585;28;20206;-78
2024/01/16 00:10:20;;;;;;;4.03;2.30;;;-0.90;75.80;;;;;;5085876;28;20193;-77
2024/01/16 00:12:47;;;;;;;2.70;2.23;;;-0.90;74.00;;;;;;5079227;28;20222;-77
2024/01/16 00:15:14;;;;;;;2.80;2.30;;;-1.00;75.30;;;;;;5084049;28;20197;-77
2024/01/16 00:17:42;;;;;;;2.47;2.10;;;-0.90;74.90;;;;;;5083455;28;20225;-78
2024/01/16 00:20:10;;;;;;;5.90;2.10;;;-0.90;73.50;;;;;;5075372;28;20212;-77
2024/01/16 00:22:37;;;;;;;3.03;2.30;;;-1.00;77.10;;;;;;5083227;28;20219;-78
2024/01/16 00:25:05;;;;;;;3.67;2.40;;;-0.90;74.90;;;;;;5076285;28;20197;-77
2024/01/16 00:27:32;;;;;;;4.17;2.43;;;-1.00;75.30;;;;;;5076238;28;20553;-77
2024/01/16 00:30:00;;;;;;;4.10;2.43;;;-1.00;73.70;;;;;;5085155;28;20815;-78
2024/01/16 00:32:27;;;;;;;2.80;2.17;;;-1.00;76.00;;;;;;5084635;28;20204;-77
2024/01/16 00:34:55;;;;;;;4.83;2.40;;;-0.90;77.50;;;;;;5080838;28;20201;-77
2024/01/16 00:37:21;;;;;;;3.47;2.70;;;-0.90;76.20;;;;;;5083578;28;21087;-77
2024/01/16 00:39:48;;;;;;;3.47;2.60;;;-1.00;76.70;;;;;;5080822;28;20207;-77
2024/01/16 00:42:15;;;;;;;3.07;2.10;;;-1.10;75.60;;;;;;5080715;28;20607;-77
2024/01/16 00:44:42;;;;;;;2.97;2.67;;;-1.30;76.90;;;;;;5080978;28;20193;-78
2024/01/16 00:47:09;;;;;;;2.93;2.20;;;-1.20;79.10;;;;;;5079544;28;20205;-77
2024/01/16 00:49:36;;;;;;;2.37;2.17;;;-1.10;76.70;;;;;;5080085;28;20670;-78
2024/01/16 00:52:06;;;;;;;3.03;2.20;;;-1.20;75.30;;;;;;5081169;28;20260;-77
2024/01/16 00:54:33;;;;;;;3.27;2.10;;;-1.10;76.70;;;;;;5076058;28;20858;-77
2024/01/16 00:57:00;;;;;;;3.30;2.10;;;-1.30;75.40;;;;;;5082657;28;20256;-78
2024/01/16 00:59:27;;;;;;;3.53;2.30;;;-1.20;78.50;;;;;;5085863;28;20197;-79
2024/01/16 01:01:53;;;;;;;3.20;2.20;;;-1.10;75.10;;;;;;5079263;28;20211;-77
2024/01/16 01:04:20;;;;;;;3.77;2.33;;;-1.20;75.20;;;;;;5075734;28;20214;-77
2024/01/16 01:06:47;;;;;;;2.67;2.23;;;-1.40;75.30;;;;;;5078826;28;20243;-78
2024/01/16 01:09:15;;;;;;;4.03;2.37;;;-1.20;76.30;;;;;;5080477;28;20200;-77
2024/01/16 01:11:42;;;;;;;3.00;2.20;;;-1.30;75.00;;;;;;5078372;28;20199;-78
2024/01/16 01:14:09;;;;;;;2.67;1.90;;;-1.40;75.90;;;;;;5077779;28;20205;-77
2024/01/16 01:16:36;;;;;;;4.37;2.17;;;-1.50;76.40;;;;;;5077384;28;20193;-77
2024/01/16 01:19:10;;;;;;;3.20;2.10;;;-1.60;76.30;;;;;;5066222;28;20199;-78
2024/01/16 01:21:37;;;;;;;5.60;1.97;;;-1.50;76.40;;;;;;5083016;28;20279;-77
2024/01/16 01:24:04;;;;;;;4.00;2.23;;;-1.60;74.40;;;;;;5085243;28;20223;-77
2024/01/16 01:26:32;;;;;;;2.70;2.10;;;-1.50;77.90;;;;;;5090172;28;20192;-77
2024/01/16 01:28:59;;;;;;;3.20;2.20;;;-1.60;75.10;;;;;;5085808;28;20208;-77
2024/01/16 01:31:25;;;;;;;4.00;2.07;;;-1.80;76.20;;;;;;5088688;28;20593;-77
2024/01/16 01:33:52;;;;;;;3.33;2.20;;;-2.00;77.40;;;;;;5087678;28;20697;-76
2024/01/16 01:36:19;;;;;;;3.00;2.10;;;-1.70;78.80;;;;;;5085712;28;20201;-76
2024/01/16 01:38:46;;;;;;;4.57;2.43;;;-1.80;77.70;;;;;;5080309;28;20191;-76
2024/01/16 01:41:13;;;;;;;3.70;2.27;;;-1.90;78.10;;;;;;5083174;28;20197;-77
2024/01/16 01:43:42;;;;;;;6.23;2.63;;;-2.10;78.20;;;;;;5087854;28;20224;-77
2024/01/16 01:46:11;;;;;;;3.97;2.67;;;-2.00;80.40;;;;;;5077832;28;20231;-77
2024/01/16 01:48:39;;;;;;;4.90;2.60;;;-1.80;79.90;;;;;;5081326;28;20665;-77
2024/01/16 01:51:06;;;;;;;4.57;2.77;;;-1.70;79.50;;;;;;5079219;28;20197;-77
2024/01/16 01:53:35;;;;;;;5.03;2.67;;;-1.70;77.00;;;;;;5087631;28;20193;-77
2024/01/16 01:56:05;;;;;;;6.13;2.60;;;-1.50;78.50;;;;;;5079806;28;21159;-77
2024/01/16 01:58:33;;;;;;;7.03;2.50;;;-1.40;77.30;;;;;;5082619;28;20255;-77
2024/01/16 02:01:02;;;;;;;2.40;2.17;;;-1.20;75.80;;;;;;5078738;28;20573;-77
2024/01/16 02:03:30;;;;;;;3.07;1.83;;;-1.00;74.70;;;;;;5080711;28;20325;-77
2024/01/16 02:05:57;;;;;;;3.03;2.33;;;-1.20;72.90;;;;;;5090852;28;20244;-78
2024/01/16 02:08:24;;;;;;;2.70;2.37;;;-1.10;75.90;;;;;;5082376;28;20201;-77
2024/01/16 02:10:51;;;;;;;4.40;1.90;;;-1.20;75.70;;;;;;5084813;28;20204;-77
2024/01/16 02:13:23;;;;;;;3.43;2.27;;;-1.00;74.70;;;;;;5082729;28;20207;-77
2024/01/16 02:15:50;;;;;;;3.33;2.30;;;-1.20;75.10;;;;;;5086390;28;20204;-77
2024/01/16 02:18:18;;;;;;;3.83;2.17;;;-1.20;74.60;;;;;;5079847;28;20196;-78
2024/01/16 02:20:46;;;;;;;4.87;2.77;;;-1.10;75.70;;;;;;5088680;28;20201;-78
2024/01/16 02:23:15;;;;;;;4.10;2.30;;;-1.00;74.60;;;;;;5081798;28;20223;-77
2024/01/16 02:25:45;;;;;;;3.13;2.20;;;-1.10;76.20;;;;;;5075278;28;20206;-77
2024/01/16 02:28:12;;;;;;;2.50;2.10;;;-1.00;73.30;;;;;;5050526;28;20204;-77
2024/01/16 02:30:41;;;;;;;3.17;2.20;;;-1.10;76.30;;;;;;5088519;28;20239;-77
2024/01/16 02:33:10;;;;;;;3.63;1.90;;;-1.10;72.90;;;;;;5075430;28;20294;-78
2024/01/16 02:35:37;;;;;;;2.77;2.00;;;-1.00;73.30;;;;;;5088429;28;20201;-80
2024/01/16 02:38:04;;;;;;;3.30;2.10;;;-1.30;71.10;;;;;;5076927;28;20220;-77
2024/01/16 02:40:31;;;;;;;6.53;1.93;;;-1.50;72.80;;;;;;5085654;28;20202;-77
2024/01/16 02:42:59;;;;;;;4.53;2.30;;;-1.70;75.40;;;;;;5077070;28;20221;-77
2024/01/16 02:45:26;;;;;;;2.43;1.97;;;-1.60;76.30;;;;;;5085845;28;20210;-77
2024/01/16 02:47:53;;;;;;;3.43;2.27;;;-1.80;75.00;;;;;;5082694;28;20202;-77
2024/01/16 02:50:21;;;;;;;3.17;1.93;;;-1.90;75.60;;;;;;5085759;28;20200;-77
2024/01/16 02:52:47;;;;;;;3.53;2.30;;;-1.80;77.90;;;;;;5083563;28;20263;-78
2024/01/16 02:55:14;;;;;;;3.90;2.20;;;-1.70;77.70;;;;;;5085308;28;20220;-77
2024/01/16 02:57:41;;;;;;;2.97;2.20;;;-1.70;77.80;;;;;;5079841;28;20661;-77
2024/01/16 03:00:11;;;;;;;3.00;2.27;;;-1.70;76.80;;;;;;5079341;28;20195;-77
2024/01/16 03:02:37;;;;;;;2.77;2.03;;;-1.70;77.80;;;;;;5076453;28;20292;-80
2024/01/16 03:05:20;;;;;;;3.43;2.17;;;-1.70;76.90;;;;;;5082402;28;20213;-77
2024/01/16 03:07:46;;;;;;;2.40;2.00;;;-1.80;74.60;;;;;;5069552;28;20194;-77
2024/01/16 03:10:13;;;;;;;3.97;2.33;;;-1.80;76.70;;;;;;5089112;28;20193;-77
2024/01/16 03:12:40;;;;;;;2.30;2.10;;;-1.90;76.20;;;;;;5088478;28;20197;-78
2024/01/16 03:15:09;;;;;;;4.23;2.30;;;-2.00;76.10;;;;;;5076571;28;20197;-77
2024/01/16 03:17:36;;;;;;;5.17;2.50;;;-2.10;77.50;;;;;;5083058;28;20193;-78
2024/01/16 03:20:04;;;;;;;4.60;2.40;;;-2.10;79.70;;;;;;5082724;28;20201;-77
2024/01/16 03:22:30;;;;;;;2.90;2.37;;;-2.10;77.00;;;;;;5082696;28;20247;-77
2024/01/16 03:24:57;;;;;;;4.20;2.50;;;-2.00;79.20;;;;;;5077067;28;20662;-77
2024/01/16 03:27:24;;;;;;;3.37;2.40;;;-2.00;77.90;;;;;;5083203;28;20238;-77
2024/01/16 03:29:51;;;;;;;5.00;2.40;;;-1.90;76.40;;;;;;5082399;28;20201;-78
2024/01/16 03:32:19;;;;;;;4.47;2.70;;;-2.00;78.70;;;;;;5082971;28;20205;-77
2024/01/16 03:34:46;;;;;;;4.70;2.60;;;-1.90;77.90;;;;;;5084927;28;20197;-77
2024/01/16 03:37:13;;;;;;;3.13;2.50;;;-1.90;76.90;;;;;;5085011;28;20189;-78
2024/01/16 03:39:40;;;;;;;4.23;2.60;;;-2.20;75.90;;;;;;5080285;28;20202;-76
2024/01/16 03:42:06;;;;;;;4.63;2.50;;;-2.20;76.10;;;;;;5085296;28;20194;-78
2024/01/16 03:44:33;;;;;;;4.70;2.40;;;-2.10;78.90;;;;;;5081367;28;20217;-78
2024/01/16 03:47:00;;;;;;;2.63;2.03;;;-2.10;76.60;;;;;;5075664;28;20196;-78
2024/01/16 03:49:28;;;;;;;4.07;2.77;;;-2.00;77.80;;;;;;5075972;28;20197;-77
2024/01/16 03:51:55;;;;;;;3.50;2.50;;;-2.20;76.80;;;;;;5086584;28;20192;-78
2024/01/16 03:54:22;;;;;;;4.77;2.50;;;-2.30;77.80;;;;;;5088487;28;20192;-77
2024/01/16 03:56:49;;;;;;;5.80;2.63;;;-2.30;79.00;;;;;;5075118;28;20213;-77
2024/01/16 03:59:15;;;;;;;4.47;2.40;;;-2.40;78.10;;;;;;5084488;28;20289;-77
2024/01/16 04:01:44;;;;;;;3.93;2.40;;;-2.30;81.10;;;;;;5080520;28;20641;-78
2024/01/16 04:04:10;;;;;;;5.93;2.53;;;-2.10;79.50;;;;;;5086764;28;20229;-79
2024/01/16 04:06:38;;;;;;;3.60;2.33;;;-2.20;76.60;;;;;;5081117;28;20204;-77
2024/01/16 04:09:09;;;;;;;5.10;2.63;;;-2.30;77.20;;;;;;5082409;28;20201;-77
2024/01/16 04:11:36;;;;;;;4.13;2.50;;;-2.20;79.80;;;;;;5076474;28;20200;-76
2024/01/16 04:14:03;;;;;;;2.67;2.13;;;-2.20;77.70;;;;;;5066950;28;20262;-77
2024/01/16 04:16:29;;;;;;;3.30;2.57;;;-2.10;77.30;;;;;;5084638;28;20201;-77
2024/01/16 04:18:56;;;;;;;3.00;2.30;;;-2.10;76.90;;;;;;5091967;28;20200;-77
2024/01/16 04:21:23;;;;;;;4.00;2.50;;;-2.10;77.50;;;;;;5084651;28;20197;-78
2024/01/16 04:23:51;;;;;;;4.80;2.50;;;-2.20;76.10;;;;;;5081881;28;20229;-77
2024/01/16 04:26:18;;;;;;;4.33;2.50;;;-2.10;77.20;;;;;;5084746;28;20200;-78
2024/01/16 04:28:45;;;;;;;4.80;2.30;;;-2.10;76.70;;;;;;5084316;28;20200;-77
2024/01/16 04:31:13;;;;;;;3.10;2.27;;;-2.20;75.90;;;;;;5088213;28;20227;-78
2024/01/16 04:33:41;;;;;;;3.37;2.30;;;-2.10;76.90;;;;;;5090682;28;20736;-78
2024/01/16 04:36:08;;;;;;;4.27;2.60;;;-2.10;75.70;;;;;;5084054;28;20196;-77
2024/01/16 04:38:35;;;;;;;3.73;2.27;;;-2.10;76.00;;;;;;5081916;28;20214;-78
2024/01/16 04:41:04;;;;;;;3.27;2.10;;;-2.00;76.60;;;;;;5084669;28;20283;-76
2024/01/16 04:43:31;;;;;;;3.50;2.30;;;-1.90;75.90;;;;;;5084022;28;20228;-78
2024/01/16 04:45:58;;;;;;;4.73;2.80;;;-1.90;74.40;;;;;;5074874;28;20226;-77
2024/01/16 04:48:24;;;;;;;2.53;2.10;;;-2.00;76.10;;;;;;5087657;28;20197;-78
2024/01/16 04:50:51;;;;;;;4.10;2.50;;;-2.00;75.60;;;;;;5059002;28;20197;-77
2024/01/16 04:53:18;;;;;;;8.93;2.57;;;-1.90;76.80;;;;;;5079249;28;20203;-78
2024/01/16 04:55:45;;;;;;;3.43;2.20;;;-1.70;73.60;;;;;;5080833;28;20197;-78
2024/01/16 04:58:13;;;;;;;3.83;2.47;;;-1.70;71.80;;;;;;5081121;28;20204;-77
2024/01/16 05:00:40;;;;;;;5.33;2.53;;;-1.80;73.00;;;;;;5087386;28;20200;-80
2024/01/16 05:03:07;;;;;;;4.67;2.20;;;-1.80;73.30;;;;;;5086476;28;20188;-77
2024/01/16 05:05:33;;;;;;;4.50;2.40;;;-1.80;74.90;;;;;;5084134;28;20210;-77
2024/01/16 05:08:02;;;;;;;4.87;2.27;;;-1.90;72.30;;;;;;5078610;28;20566;-77
2024/01/16 05:10:29;;;;;;;6.43;2.50;;;-1.90;73.80;;;;;;5090469;28;20640;-78
2024/01/16 05:12:56;;;;;;;3.00;2.20;;;-1.90;73.10;;;;;;5086822;28;20699;-77
2024/01/16 05:15:24;;;;;;;3.93;2.47;;;-2.00;73.20;;;;;;5064884;28;20199;-77
2024/01/16 05:17:54;;;;;;;4.13;2.40;;;-2.20;74.10;;;;;;5087183;28;20209;-77
2024/01/16 05:20:21;;;;;;;3.53;2.30;;;-2.30;75.50;;;;;;5079734;28;20196;-77
2024/01/16 05:22:48;;;;;;;4.53;2.50;;;-2.30;75.60;;;;;;5087365;28;20207;-78
2024/01/16 05:25:16;;;;;;;4.30;2.50;;;-2.40;75.90;;;;;;5087028;28;20226;-78
2024/01/16 05:27:44;;;;;;;3.60;2.80;;;-2.50;77.10;;;;;;5087412;28;20196;-77
2024/01/16 05:30:11;;;;;;;2.10;1.90;;;-2.60;78.30;;;;;;5079377;28;20212;-76
2024/01/16 05:32:41;;;;;;;3.47;2.23;;;-2.60;79.90;;;;;;5081067;28;20197;-78
2024/01/16 05:35:09;;;;;;;3.90;2.20;;;-2.60;79.80;;;;;;5081479;28;20201;-78
2024/01/16 05:37:36;;;;;;;5.53;2.50;;;-2.40;79.80;;;;;;5093162;28;20198;-78
2024/01/16 05:40:03;;;;;;;3.40;2.60;;;-2.50;78.10;;;;;;5066302;28;20206;-77
2024/01/16 05:42:30;;;;;;;4.93;2.60;;;-2.50;79.00;;;;;;5084714;28;20189;-78
2024/01/16 05:44:57;;;;;;;4.20;2.47;;;-2.60;78.70;;;;;;5079479;28;20231;-78
2024/01/16 05:47:27;;;;;;;4.83;2.67;;;-2.50;81.20;;;;;;5077635;28;20205;-77
2024/01/16 05:49:56;;;;;;;4.10;2.60;;;-2.40;80.40;;;;;;5082183;28;20232;-77
2024/01/16 05:52:23;;;;;;;3.97;2.23;;;-2.60;78.10;;;;;;5070017;28;20242;-77
2024/01/16 05:54:50;;;;;;;4.13;2.30;;;-2.40;82.80;;;;;;5086222;28;20200;-77
2024/01/16 05:57:17;;;;;;;5.13;2.30;;;-2.50;80.30;;;;;;5076774;28;20201;-76
2024/01/16 05:59:43;;;;;;;3.93;2.40;;;-2.60;78.90;;;;;;5085270;28;20223;-77
2024/01/16 06:02:10;;;;;;;5.60;2.40;;;-2.80;81.00;;;;;;5084602;28;20194;-76
2024/01/16 06:04:37;;;;;;;3.03;2.23;;;-2.90;80.30;;;;;;5086081;28;20316;-76
2024/01/16 06:07:07;;;;;;;4.30;2.60;;;-3.00;82.40;;;;;;5076697;28;20193;-81
2024/01/16 06:09:33;;;;;;;4.23;2.50;;;-2.90;84.00;;;;;;5086253;28;20250;-76
2024/01/16 06:12:00;;;;;;;5.20;2.80;;;-2.80;81.70;;;;;;5064589;28;20205;-76
2024/01/16 06:14:27;;;;;;;4.33;2.73;;;-2.90;81.20;;;;;;5083904;28;20210;-76
2024/01/16 06:16:54;;;;;;;3.43;2.50;;;-2.60;82.10;;;;;;5087575;28;20193;-77
2024/01/16 06:19:21;;;;;;;3.07;2.20;;;-2.70;79.60;;;;;;5085832;28;20570;-76
2024/01/16 06:21:48;;;;;;;3.63;2.20;;;-2.90;80.80;;;;;;5089442;28;20196;-76
2024/01/16 06:24:16;;;;;;;3.17;2.20;;;-2.70;81.10;;;;;;5083192;28;20247;-76
2024/01/16 06:26:43;;;;;;;4.93;2.90;;;-2.80;80.40;;;;;;5078867;28;20316;-77
2024/01/16 06:29:10;;;;;;;2.87;2.57;;;-2.90;80.40;;;;;;5087742;28;20238;-77
2024/01/16 06:31:36;;;;;;;3.33;2.40;;;-3.00;80.90;;;;;;5069525;28;20203;-78
2024/01/16 06:34:03;;;;;;;4.80;2.63;;;-3.00;82.00;;;;;;5086145;28;20205;-77
2024/01/16 06:36:30;;;;;;;3.83;2.67;;;-3.10;83.10;;;;;;5081745;28;20565;-76
2024/01/16 06:38:57;;;;;;;5.00;2.30;;;-3.10;83.90;;;;;;5082129;28;20205;-77
2024/01/16 06:41:25;;;;;;;3.30;2.57;;;-3.20;83.80;;;;;;5077224;28;20193;-77
2024/01/16 06:43:52;;;;;;;5.53;2.87;;;-3.10;83.90;;;;;;5092618;28;20228;-77
2024/01/16 06:46:18;;;;;;;4.03;2.70;;;-3.10;83.90;;;;;;5088729;28;20197;-76
2024/01/16 06:48:45;;;;;;;3.03;2.57;;;-3.10;83.90;;;;;;5080080;28;20197;-77
2024/01/16 06:51:14;;;;;;;5.80;2.57;;;-3.10;83.90;;;;;;5079910;28;20203;-76
2024/01/16 06:53:40;;;;;;;3.73;2.67;;;-2.90;84.00;;;;;;5067968;28;20193;-79
2024/01/16 06:56:07;;;;;;;4.40;2.40;;;-2.80;82.90;;;;;;5087848;28;20686;-76
2024/01/16 06:58:36;;;;;;;6.50;3.10;;;-2.50;84.40;;;;;;5085308;28;20197;-76
2024/01/16 07:01:03;;;;;;;4.77;2.73;;;-2.30;83.30;;;;;;5087343;28;20212;-77
2024/01/16 07:03:30;;;;;;;4.33;2.43;;;-2.20;83.00;;;;;;5080803;28;20200;-76
2024/01/16 07:05:57;;;;;;;3.37;2.67;;;-2.10;80.70;;;;;;5076446;28;20701;-77
2024/01/16 07:08:23;;;;;;;8.23;3.10;;;-2.00;77.90;;;;;;5084709;28;20198;-76
2024/01/16 07:10:50;;;;;;;5.50;2.97;;;-2.10;78.00;;;;;;5079642;28;20197;-76
2024/01/16 07:13:17;;;;;;;6.20;2.90;;;-2.20;78.50;;;;;;5077657;28;20197;-76
2024/01/16 07:15:45;;;;;;;4.33;2.67;;;-2.20;78.10;;;;;;5073495;28;20205;-76
2024/01/16 07:18:12;;;;;;;9.07;3.27;;;-2.30;77.10;;;;;;5080764;28;20197;-76
2024/01/16 07:20:38;;;;;;;6.17;3.03;;;-2.30;77.20;;;;;;5077154;28;20200;-76
2024/01/16 07:23:06;;;;;;;5.17;3.00;;;-2.30;78.10;;;;;;5082249;28;20914;-76
2024/01/16 07:25:33;;;;;;;5.20;3.00;;;-2.30;80.20;;;;;;5079437;28;20314;-76
2024/01/16 07:28:00;;;;;;;6.00;3.10;;;-2.30;77.70;;;;;;5083921;28;20205;-76
2024/01/16 07:30:27;;;;;;;8.67;3.50;;;-2.30;81.20;;;;;;5087646;28;20212;-76
2024/01/16 07:32:55;;;;;;;6.00;3.47;;;-2.00;82.00;;;;;;5086664;28;20204;-77
2024/01/16 07:35:21;;;;;;;9.87;3.00;;;-1.90;79.10;;;;;;5081355;28;20198;-76
2024/01/16 07:37:48;;;;;;;10.10;3.30;;;-1.90;79.80;;;;;;5085290;28;20192;-79
2024/01/16 07:40:16;;;;;;;5.40;3.10;;;-2.00;79.00;;;;;;5082166;28;20560;-77
2024/01/16 07:42:43;;;;;;;9.03;3.27;;;-1.90;78.00;;;;;;5084311;28;20220;-77
2024/01/16 07:45:10;;;;;;;7.43;3.10;;;-2.00;76.60;;;;;;5083308;28;20692;-76
2024/01/16 07:47:37;;;;;;;9.13;3.37;;;-2.00;79.30;;;;;;5085979;28;20254;-76
2024/01/16 07:50:07;;;;;;;4.70;3.10;;;-2.00;77.90;;;;;;5084147;28;20964;-76
2024/01/16 07:52:33;;;;;;;5.63;3.17;;;-1.80;78.80;;;;;;5089757;28;20200;-76
2024/01/16 07:55:00;;;;;;;9.20;3.90;;;-1.60;77.40;;;;;;5088192;28;20245;-77
2024/01/16 07:57:27;;;;;;;5.27;3.27;;;-1.60;71.30;;;;;;5089009;28;20195;-77
2024/01/16 07:59:54;;;;;;;12.97;3.33;;;-1.40;76.70;;;;;;5079075;28;20227;-77
2024/01/16 08:02:21;;;;;;;6.63;3.10;;;-1.50;70.00;;;;;;5085445;28;20202;-77
2024/01/16 08:04:48;;;;;;;6.43;3.47;;;-1.70;72.30;;;;;;5082014;28;20232;-76
2024/01/16 08:07:16;;;;;;;8.80;3.50;;;-1.60;75.50;;;;;;5086399;28;20812;-77
2024/01/16 08:09:44;;;;;;;8.20;4.00;;;-1.50;74.90;;;;;;5090404;28;20196;-76
2024/01/16 08:12:11;;;;;;;9.93;3.90;;;-1.30;73.20;;;;;;5075614;28;20196;-77
2024/01/16 08:14:37;;;;;;;8.60;3.50;;;-1.10;74.60;;;;;;5078092;28;20193;-76
2024/01/16 08:17:05;;;;;;;8.07;3.60;;;-0.90;71.40;;;;;;5078882;28;20205;-75
2024/01/16 08:19:32;;;;;;;6.83;3.10;;;-1.00;65.20;;;;;;5083189;28;20201;-75
2024/01/16 08:21:59;;;;;;;6.00;3.47;;;-0.80;65.90;;;;;;5080968;28;20230;-77
2024/01/16 08:24:27;;;;;;;12.90;4.47;;;-0.60;67.80;;;;;;5077515;28;20220;-78
2024/01/16 08:26:57;;;;;;;7.57;4.10;;;-0.40;62.30;;;;;;5087155;28;20196;-76
2024/01/16 08:29:24;;;;;;;10.53;4.07;;;-0.40;64.00;;;;;;5085949;28;20228;-75
2024/01/16 08:31:52;;;;;;;7.00;3.57;;;-0.30;64.10;;;;;;5086842;28;20250;-78
2024/01/16 08:34:19;;;;;;;10.63;3.93;;;-0.20;64.30;;;;;;5087382;28;20190;-78
2024/01/16 08:36:46;;;;;;;7.80;3.90;;;-0.10;60.30;;;;;;5083748;28;20200;-78
2024/01/16 08:39:13;;;;;;;9.57;4.10;;;-0.30;61.20;;;;;;5084061;28;20280;-77
2024/01/16 08:41:41;;;;;;;4.83;3.50;;;-0.40;60.10;;;;;;5080115;28;20193;-77
2024/01/16 08:44:08;;;;;;;6.07;3.37;;;-0.20;61.20;;;;;;5079338;28;20205;-77
2024/01/16 08:46:35;;;;;;;8.37;4.03;;;0.00;60.60;;;;;;5079750;28;20278;-77
2024/01/16 08:49:02;;;;;;;8.77;3.77;;;0.30;57.10;;;;;;5088678;28;20196;-77
2024/01/16 08:51:28;;;;;;;6.67;3.40;;;0.50;55.40;;;;;;5076067;28;20193;-78
2024/01/16 08:53:55;;;;;;;6.17;3.53;;;0.70;56.80;;;;;;5085613;28;20206;-77
2024/01/16 08:56:22;;;;;;;6.37;3.10;;;0.50;51.20;;;;;;5078862;28;20201;-77
2024/01/16 08:58:50;;;;;;;4.73;3.10;;;0.60;52.60;;;;;;5076325;28;20571;-77
2024/01/16 09:01:17;;;;;;;5.30;3.60;;;0.60;51.80;;;;;;5081847;28;20211;-77
2024/01/16 09:03:44;;;;;;;9.23;4.73;;;0.80;53.00;;;;;;5081884;28;20568;-79
2024/01/16 09:06:11;;;;;;;7.97;3.80;;;0.80;54.00;;;;;;5083685;28;20220;-77
2024/01/16 09:08:38;;;;;;;6.57;4.13;;;1.10;51.30;;;;;;5081313;28;20200;-77
2024/01/16 09:11:05;;;;;;;6.93;4.27;;;1.40;53.90;;;;;;5081722;28;20205;-76
2024/01/16 09:13:31;;;;;;;6.87;3.80;;;1.30;44.50;;;;;;5077966;28;20197;-77
2024/01/16 09:16:00;;;;;;;5.40;3.90;;;1.50;45.00;;;;;;5084398;28;20224;-77
2024/01/16 09:18:27;;;;;;;7.07;4.20;;;1.70;41.70;;;;;;5086304;28;20661;-77
2024/01/16 09:20:54;;;;;;;5.57;3.60;;;2.10;47.50;;;;;;5076801;28;20196;-77
2024/01/16 09:23:21;;;;;;;12.17;3.53;;;2.80;46.10;;;;;;5080233;28;20207;-79
2024/01/16 09:25:48;;;;;;;5.43;2.97;;;3.20;38.30;;;;;;5085719;28;20223;-80
2024/01/16 09:28:15;;;;;;;8.60;3.40;;;3.20;35.10;;;;;;5081994;28;20192;-83
2024/01/16 09:30:43;;;;;;;5.10;3.00;;;3.70;33.30;;;;;;5081934;28;20200;-80
2024/01/16 09:33:11;;;;;;;6.17;3.67;;;4.30;33.00;;;;;;5072719;28;20684;-80
2024/01/16 09:35:38;;;;;;;5.47;2.90;;;5.00;29.10;;;;;;5089403;28;20262;-79
2024/01/16 09:38:06;;;;;;;5.97;3.10;;;5.40;23.30;;;;;;5064570;28;20607;-79
2024/01/16 09:40:33;;;;;;;4.38;2.80;;;5.30;24.20;;;;;;5079611;28;20201;-79
2024/01/16 09:43:01;;;;;;;5.78;3.25;;;4.80;25.50;;;;;;5076368;28;20198;-79
2024/01/16 09:45:31;;;;;;;4.57;2.45;;;4.60;28.70;;;;;;5067824;28;20223;-79
2024/01/16 09:47:58;;;;;;;6.25;2.95;;;4.10;26.90;;;;;;5082767;28;20205;-82
2024/01/16 09:50:26;;;;;;;6.03;3.05;;;3.80;31.20;;;;;;5084710;28;20661;-79
2024/01/16 09:52:53;;;;;;;4.85;3.25;;;3.60;35.10;;;;;;5070685;28;20571;-79
2024/01/16 09:55:24;;;;;;;4.97;3.05;;;3.60;40.00;;;;;;5091713;28;20228;-79
2024/01/16 09:57:54;;;;;;;3.35;2.95;;;3.50;46.90;;;;;;5083795;28;20648;-82
2024/01/16 10:00:20;;;;;;;4.27;3.27;;;3.40;43.00;;;;;;5084110;28;20204;-78
2024/01/16 10:02:58;;;;;;;5.03;2.97;;;3.10;39.90;;;;;;5087773;28;20200;-79
2024/01/16 10:05:26;;;;;;;4.03;2.97;;;2.60;42.30;;;;;;5081923;28;20228;-79
2024/01/16 10:07:53;;;;;;;4.57;3.23;;;2.20;42.10;;;;;;5085326;28;20201;-77
2024/01/16 10:10:28;;;;;;;6.60;3.10;;;1.80;43.00;;;;;;5087575;28;20194;-77
2024/01/16 10:12:56;;;;;;;3.73;2.80;;;1.70;50.60;;;;;;5084437;28;20206;-76
2024/01/16 10:15:24;;;;;;;4.13;3.00;;;1.60;49.20;;;;;;5081582;28;20205;-79
2024/01/16 10:17:51;;;;;;;3.90;2.90;;;1.90;58.70;;;;;;5092420;28;20196;-78
2024/01/16 10:20:32;;;;;;;4.30;2.90;;;2.20;49.20;;;;;;5083714;28;20197;-78
2024/01/16 10:23:00;;;;;;;4.47;2.70;;;2.20;47.50;;;;;;5078094;28;20201;-78
2024/01/16 10:25:27;;;;;;;4.33;2.90;;;2.30;42.10;;;;;;5079209;28;20220;-78
2024/01/16 10:28:04;;;;;;;4.60;2.70;;;2.10;41.90;;;;;;5084651;28;20193;-78
2024/01/16 10:30:31;;;;;;;5.63;3.03;;;2.00;39.90;;;;;;5082366;28;20664;-79
2024/01/16 10:33:14;;;;;;;5.60;3.17;;;2.10;47.00;;;;;;5091290;28;20192;-78
2024/01/16 10:35:41;;;;;;;5.37;2.70;;;2.40;42.20;;;;;;5088371;28;20196;-78
2024/01/16 10:38:09;;;;;;;4.10;2.40;;;2.50;49.80;;;;;;5089679;28;20193;-81
2024/01/16 10:40:35;;;;;;;4.63;2.50;;;2.70;44.80;;;;;;5084884;28;20192;-78
2024/01/16 10:43:04;;;;;;;6.57;2.37;;;2.70;42.40;;;;;;5077155;28;20197;-77
2024/01/16 10:45:39;;;;;;;5.03;2.33;;;2.70;43.60;;;;;;5082045;28;20717;-78
2024/01/16 10:48:07;;;;;;;4.20;2.40;;;2.60;36.90;;;;;;5080884;28;20193;-77
2024/01/16 10:50:34;;;;;;;5.20;2.70;;;2.80;44.30;;;;;;5086929;28;20212;-78
2024/01/16 10:53:06;;;;;;;2.90;2.20;;;2.90;39.20;;;;;;5088504;28;20203;-78
2024/01/16 10:55:51;;;;;;;3.80;2.40;;;2.80;35.40;;;;;;5086826;28;20223;-78
2024/01/16 10:58:21;;;;;;;3.47;2.33;;;2.70;35.00;;;;;;5089612;28;20189;-78
2024/01/16 11:00:51;;;;;;;3.50;2.27;;;2.80;34.00;;;;;;5088727;28;20203;-80
2024/01/16 11:03:23;;;;;;;3.30;2.07;;;3.00;40.10;;;;;;5088707;28;20194;-77
2024/01/16 11:05:51;;;;;;;4.37;2.03;;;3.20;30.70;;;;;;5079389;28;20225;-81
2024/01/16 11:08:20;;;;;;;3.70;2.20;;;3.50;33.00;;;;;;5085865;28;20259;-81
2024/01/16 11:10:50;;;;;;;2.50;2.00;;;3.60;39.90;;;;;;5079524;28;20772;-83
2024/01/16 11:13:19;;;;;;;2.90;1.90;;;3.80;32.30;;;;;;5079541;28;20193;-80
2024/01/16 11:15:48;;;;;;;2.30;1.83;;;3.60;31.40;;;;;;5085573;28;20201;-80
2024/01/16 11:18:17;;;;;;;2.97;1.87;;;3.60;25.40;;;;;;5084672;28;20235;-82
2024/01/16 11:20:44;;;;;;;3.67;2.00;;;3.80;29.30;;;;;;5090886;28;20200;-81
2024/01/16 11:23:12;;;;;;;2.47;1.77;;;3.80;33.40;;;;;;5077674;28;20189;-81
2024/01/16 11:25:39;;;;;;;80.53;51.20;;;3.60;23.40;;;;;;5085032;28;20220;-81
2024/01/16 11:28:13;;;;;;;81.23;53.20;;;3.60;27.30;;;;;;5067294;28;20209;-82
2024/01/16 11:30:40;;;;;;;4.30;2.53;;;3.80;32.90;;;;;;5080178;28;20201;-81
2024/01/16 11:33:07;;;;;;;3.47;2.10;;;3.70;23.90;;;;;;5080199;28;20233;-80
2024/01/16 11:35:36;;;;;;;2.83;1.80;;;3.50;22.60;;;;;;5087082;28;20563;-81
2024/01/16 11:38:09;;;;;;;2.63;2.00;;;3.10;25.10;;;;;;5080875;28;20203;-80
2024/01/16 11:40:37;;;;;;;3.13;1.90;;;3.00;28.30;;;;;;5080217;28;20197;-80
2024/01/16 11:43:39;;;;;;;5.77;4.00;;;2.80;26.70;;;;;;5080142;28;20210;-80
2024/01/16 11:46:07;;;;;;;17.10;12.30;;;2.80;30.10;;;;;;5082100;28;20632;-81
2024/01/16 11:48:34;;;;;;;3.13;2.07;;;2.90;37.40;;;;;;5081009;28;20190;-80
2024/01/16 11:51:01;;;;;;;5.70;3.17;;;2.90;27.40;;;;;;5082907;28;20210;-81
2024/01/16 11:53:39;;;;;;;8.80;5.63;;;3.00;30.60;;;;;;5085499;28;20196;-82
2024/01/16 11:56:36;;;;;;;3.00;2.43;;;3.20;38.90;;;;;;5084369;28;20661;-82
2024/01/16 11:59:19;;;;;;;2.33;1.70;;;3.30;25.40;;;;;;5092282;28;20270;-81
2024/01/16 12:01:46;;;;;;;5.30;1.83;;;3.00;24.20;;;;;;5080670;28;20201;-81
2024/01/16 12:04:18;;;;;;;12.27;7.20;;;2.70;25.80;;;;;;5082548;28;20581;-81
2024/01/16 12:06:44;;;;;;;2.30;1.50;;;2.80;46.90;;;;;;5087596;28;20303;-81
2024/01/16 12:09:16;;;;;;;5.23;3.97;;;2.80;26.60;;;;;;5058436;28;20574;-80
2024/01/16 12:11:45;;;;;;;3.33;2.10;;;2.80;31.70;;;;;;5082909;28;20193;-81
2024/01/16 12:14:13;;;;;;;6.33;3.73;;;3.30;34.90;;;;;;5077463;28;20247;-81
2024/01/16 12:16:40;;;;;;;4.40;3.17;;;3.50;35.30;;;;;;5085720;28;20208;-82
2024/01/16 12:19:08;;;;;;;6.80;3.23;;;3.40;30.10;;;;;;5083733;28;20615;-81
2024/01/16 12:21:36;;;;;;;3.27;2.10;;;3.30;31.60;;;;;;5089841;28;20196;-81
2024/01/16 12:24:03;;;;;;;3.37;1.70;;;3.40;27.80;;;;;;5081724;28;20267;-81
2024/01/16 12:26:37;;;;;;;2.50;1.60;;;3.60;29.10;;;;;;5078219;28;20750;-82
2024/01/16 12:29:04;;;;;;;2.20;1.70;;;3.60;26.40;;;;;;5075626;28;20681;-82
2024/01/16 12:31:32;;;;;;;2.57;1.80;;;3.50;23.20;;;;;;5080300;28;20196;-81
2024/01/16 12:34:07;;;;;;;1.93;1.60;;;3.60;24.60;;;;;;5082229;28;20678;-81
2024/01/16 12:36:33;;;;;;;2.30;1.70;;;3.50;23.20;;;;;;5081940;28;20207;-81
2024/01/16 12:39:00;;;;;;;2.70;2.00;;;3.20;23.20;;;;;;5086038;28;20203;-80
2024/01/16 12:41:29;;;;;;;2.97;2.40;;;3.10;22.90;;;;;;5073785;28;20196;-83
2024/01/16 12:43:56;;;;;;;2.90;1.60;;;3.00;23.70;;;;;;5087021;28;20212;-82
2024/01/16 12:46:23;;;;;;;4.60;1.87;;;3.00;23.70;;;;;;5081353;28;20221;-80
2024/01/16 12:48:51;;;;;;;2.40;1.60;;;3.30;30.90;;;;;;5077009;28;20558;-84
2024/01/16 12:51:24;;;;;;;1.90;1.70;;;3.70;31.20;;;;;;5084184;28;20930;-80
2024/01/16 12:53:51;;;;;;;1.73;1.60;;;3.60;20.30;;;;;;5080494;28;20189;-81